sensor_id;sensor_type;location;lat;lon;timestamp;P1;durP1;ratioP1;P2;durP2;ratioP2
19599;SDS011;9947;57.722;12.012;2023-03-31T00:01:21;2.00;;;1.90;;
19599;SDS011;9947;57.722;12.012;2023-03-31T00:03:51;2.00;;;1.90;;
19599;SDS011;9947;57.722;12.012;2023-03-31T00:06:29;1.80;;;1.70;;
19599;SDS011;9947;57.722;12.012;2023-03-31T00:09:02;2.03;;;1.90;;
19599;SDS011;9947;57.722;12.012;2023-03-31T00:11:31;1.60;;;1.60;;
19599;SDS011;9947;57.722;12.012;2023-03-31T00:13:58;2.03;;;1.90;;
19599;SDS011;9947;57.722;12.012;2023-03-31T00:16:26;2.00;;;1.90;;
19599;SDS011;9947;57.722;12.012;2023-03-31T00:18:56;2.10;;;2.00;;
19599;SDS011;9947;57.722;12.012;2023-03-31T00:21:26;2.00;;;1.90;;
19599;SDS011;9947;57.722;12.012;2023-03-31T00:23:58;1.63;;;1.63;;
19599;SDS011;9947;57.722;12.012;2023-03-31T00:26:27;1.97;;;1.90;;
19599;SDS011;9947;57.722;12.012;2023-03-31T00:28:58;2.10;;;2.00;;
19599;SDS011;9947;57.722;12.012;2023-03-31T00:31:32;1.80;;;1.80;;
19599;SDS011;9947;57.722;12.012;2023-03-31T00:34:08;1.97;;;1.83;;
19599;SDS011;9947;57.722;12.012;2023-03-31T00:36:35;1.80;;;1.80;;
19599;SDS011;9947;57.722;12.012;2023-03-31T00:39:11;2.10;;;1.90;;
19599;SDS011;9947;57.722;12.012;2023-03-31T00:44:38;1.93;;;1.83;;
19599;SDS011;9947;57.722;12.012;2023-03-31T00:47:51;1.60;;;1.60;;
19599;SDS011;9947;57.722;12.012;2023-03-31T00:50:21;1.90;;;1.80;;
19599;SDS011;9947;57.722;12.012;2023-03-31T00:52:56;1.83;;;1.77;;
19599;SDS011;9947;57.722;12.012;2023-03-31T00:55:27;1.90;;;1.80;;
19599;SDS011;9947;57.722;12.012;2023-03-31T00:58:00;2.03;;;1.93;;
19599;SDS011;9947;57.722;12.012;2023-03-31T01:00:33;1.83;;;1.83;;
19599;SDS011;9947;57.722;12.012;2023-03-31T01:03:02;2.20;;;2.10;;
19599;SDS011;9947;57.722;12.012;2023-03-31T01:05:35;2.13;;;2.03;;
19599;SDS011;9947;57.722;12.012;2023-03-31T01:08:11;2.10;;;2.00;;
19599;SDS011;9947;57.722;12.012;2023-03-31T01:10:42;2.10;;;2.00;;
19599;SDS011;9947;57.722;12.012;2023-03-31T01:13:16;1.97;;;1.87;;
19599;SDS011;9947;57.722;12.012;2023-03-31T01:15:45;1.90;;;1.80;;
19599;SDS011;9947;57.722;12.012;2023-03-31T01:18:23;1.73;;;1.73;;
19599;SDS011;9947;57.722;12.012;2023-03-31T01:21:01;1.83;;;1.73;;
19599;SDS011;9947;57.722;12.012;2023-03-31T01:24:00;1.70;;;1.70;;
19599;SDS011;9947;57.722;12.012;2023-03-31T01:26:47;1.70;;;1.70;;
19599;SDS011;9947;57.722;12.012;2023-03-31T01:29:28;1.60;;;1.60;;
19599;SDS011;9947;57.722;12.012;2023-03-31T01:32:26;1.87;;;1.77;;
19599;SDS011;9947;57.722;12.012;2023-03-31T01:38:27;2.03;;;1.93;;
19599;SDS011;9947;57.722;12.012;2023-03-31T01:41:36;1.90;;;1.80;;
19599;SDS011;9947;57.722;12.012;2023-03-31T01:44:08;1.83;;;1.73;;
19599;SDS011;9947;57.722;12.012;2023-03-31T01:46:45;1.90;;;1.80;;
19599;SDS011;9947;57.722;12.012;2023-03-31T01:49:22;1.90;;;1.90;;
19599;SDS011;9947;57.722;12.012;2023-03-31T01:52:02;2.03;;;1.93;;
19599;SDS011;9947;57.722;12.012;2023-03-31T01:54:41;2.10;;;2.00;;
19599;SDS011;9947;57.722;12.012;2023-03-31T01:57:17;2.00;;;1.90;;
19599;SDS011;9947;57.722;12.012;2023-03-31T01:59:54;2.10;;;2.00;;
19599;SDS011;9947;57.722;12.012;2023-03-31T02:02:28;1.73;;;1.70;;
19599;SDS011;9947;57.722;12.012;2023-03-31T02:05:04;2.00;;;1.90;;
19599;SDS011;9947;57.722;12.012;2023-03-31T02:07:36;1.70;;;1.70;;
19599;SDS011;9947;57.722;12.012;2023-03-31T02:10:10;1.93;;;1.80;;
19599;SDS011;9947;57.722;12.012;2023-03-31T02:12:43;2.10;;;2.00;;
19599;SDS011;9947;57.722;12.012;2023-03-31T02:15:13;2.00;;;1.90;;
19599;SDS011;9947;57.722;12.012;2023-03-31T02:17:46;1.97;;;1.90;;
19599;SDS011;9947;57.722;12.012;2023-03-31T02:20:17;2.23;;;2.13;;
19599;SDS011;9947;57.722;12.012;2023-03-31T02:22:53;2.10;;;2.00;;
19599;SDS011;9947;57.722;12.012;2023-03-31T02:25:22;2.03;;;1.93;;
19599;SDS011;9947;57.722;12.012;2023-03-31T02:27:56;1.90;;;1.80;;
19599;SDS011;9947;57.722;12.012;2023-03-31T02:30:28;2.00;;;1.90;;
19599;SDS011;9947;57.722;12.012;2023-03-31T02:33:08;2.17;;;1.90;;
19599;SDS011;9947;57.722;12.012;2023-03-31T02:35:35;2.10;;;2.00;;
19599;SDS011;9947;57.722;12.012;2023-03-31T02:38:05;2.20;;;2.10;;
19599;SDS011;9947;57.722;12.012;2023-03-31T02:40:32;2.43;;;2.23;;
19599;SDS011;9947;57.722;12.012;2023-03-31T02:43:01;1.90;;;1.80;;
19599;SDS011;9947;57.722;12.012;2023-03-31T02:45:41;2.13;;;2.03;;
19599;SDS011;9947;57.722;12.012;2023-03-31T02:48:12;2.20;;;1.90;;
19599;SDS011;9947;57.722;12.012;2023-03-31T02:50:51;2.10;;;2.00;;
19599;SDS011;9947;57.722;12.012;2023-03-31T02:53:34;2.00;;;1.90;;
19599;SDS011;9947;57.722;12.012;2023-03-31T02:56:12;2.20;;;2.10;;
19599;SDS011;9947;57.722;12.012;2023-03-31T02:58:58;2.13;;;2.03;;
19599;SDS011;9947;57.722;12.012;2023-03-31T03:04:17;2.10;;;2.00;;
19599;SDS011;9947;57.722;12.012;2023-03-31T03:07:00;2.10;;;2.00;;
19599;SDS011;9947;57.722;12.012;2023-03-31T03:09:35;2.00;;;1.90;;
19599;SDS011;9947;57.722;12.012;2023-03-31T03:12:13;2.30;;;2.20;;
19599;SDS011;9947;57.722;12.012;2023-03-31T03:14:46;2.00;;;1.90;;
19599;SDS011;9947;57.722;12.012;2023-03-31T03:17:24;3.07;;;2.17;;
19599;SDS011;9947;57.722;12.012;2023-03-31T03:19:56;2.00;;;1.90;;
19599;SDS011;9947;57.722;12.012;2023-03-31T03:22:26;2.30;;;2.10;;
19599;SDS011;9947;57.722;12.012;2023-03-31T03:24:53;2.20;;;2.10;;
19599;SDS011;9947;57.722;12.012;2023-03-31T03:27:20;4.30;;;1.80;;
19599;SDS011;9947;57.722;12.012;2023-03-31T03:29:49;2.10;;;2.00;;
19599;SDS011;9947;57.722;12.012;2023-03-31T03:32:16;2.00;;;1.90;;
19599;SDS011;9947;57.722;12.012;2023-03-31T03:34:43;2.53;;;2.10;;
19599;SDS011;9947;57.722;12.012;2023-03-31T03:37:10;4.43;;;1.90;;
19599;SDS011;9947;57.722;12.012;2023-03-31T03:39:37;1.83;;;1.80;;
19599;SDS011;9947;57.722;12.012;2023-03-31T03:42:04;2.27;;;2.10;;
19599;SDS011;9947;57.722;12.012;2023-03-31T03:44:31;1.97;;;1.77;;
19599;SDS011;9947;57.722;12.012;2023-03-31T03:46:59;2.10;;;2.00;;
19599;SDS011;9947;57.722;12.012;2023-03-31T03:49:32;1.90;;;1.80;;
19599;SDS011;9947;57.722;12.012;2023-03-31T03:51:59;2.13;;;2.03;;
19599;SDS011;9947;57.722;12.012;2023-03-31T03:54:26;2.57;;;1.90;;
19599;SDS011;9947;57.722;12.012;2023-03-31T03:56:53;4.00;;;2.17;;
19599;SDS011;9947;57.722;12.012;2023-03-31T03:59:20;2.60;;;2.40;;
19599;SDS011;9947;57.722;12.012;2023-03-31T04:01:47;1.70;;;1.60;;
19599;SDS011;9947;57.722;12.012;2023-03-31T04:04:15;3.97;;;1.97;;
19599;SDS011;9947;57.722;12.012;2023-03-31T04:06:42;2.53;;;1.90;;
19599;SDS011;9947;57.722;12.012;2023-03-31T04:09:09;1.90;;;1.90;;
19599;SDS011;9947;57.722;12.012;2023-03-31T04:11:36;3.73;;;2.33;;
19599;SDS011;9947;57.722;12.012;2023-03-31T04:14:16;2.03;;;1.90;;
19599;SDS011;9947;57.722;12.012;2023-03-31T04:16:43;2.87;;;2.03;;
19599;SDS011;9947;57.722;12.012;2023-03-31T04:19:11;2.17;;;2.07;;
19599;SDS011;9947;57.722;12.012;2023-03-31T04:21:43;3.73;;;2.13;;
19599;SDS011;9947;57.722;12.012;2023-03-31T04:24:10;2.20;;;2.10;;
19599;SDS011;9947;57.722;12.012;2023-03-31T04:26:45;2.10;;;2.00;;
19599;SDS011;9947;57.722;12.012;2023-03-31T04:29:15;2.90;;;2.07;;
19599;SDS011;9947;57.722;12.012;2023-03-31T04:31:44;2.23;;;2.10;;
19599;SDS011;9947;57.722;12.012;2023-03-31T04:34:12;3.40;;;2.00;;
19599;SDS011;9947;57.722;12.012;2023-03-31T04:36:41;1.97;;;1.87;;
19599;SDS011;9947;57.722;12.012;2023-03-31T04:39:11;2.70;;;2.10;;
19599;SDS011;9947;57.722;12.012;2023-03-31T04:41:39;3.43;;;2.43;;
19599;SDS011;9947;57.722;12.012;2023-03-31T04:44:05;3.20;;;2.00;;
19599;SDS011;9947;57.722;12.012;2023-03-31T04:46:33;6.27;;;2.00;;
19599;SDS011;9947;57.722;12.012;2023-03-31T04:49:00;3.83;;;2.10;;
19599;SDS011;9947;57.722;12.012;2023-03-31T04:51:27;3.70;;;1.90;;
19599;SDS011;9947;57.722;12.012;2023-03-31T04:53:56;2.17;;;1.97;;
19599;SDS011;9947;57.722;12.012;2023-03-31T04:56:23;2.47;;;1.87;;
19599;SDS011;9947;57.722;12.012;2023-03-31T04:58:51;2.00;;;1.90;;
19599;SDS011;9947;57.722;12.012;2023-03-31T05:01:24;2.00;;;1.90;;
19599;SDS011;9947;57.722;12.012;2023-03-31T05:03:51;3.23;;;2.00;;
19599;SDS011;9947;57.722;12.012;2023-03-31T05:06:18;2.00;;;1.90;;
19599;SDS011;9947;57.722;12.012;2023-03-31T05:08:45;2.00;;;1.80;;
19599;SDS011;9947;57.722;12.012;2023-03-31T05:11:13;5.17;;;2.33;;
19599;SDS011;9947;57.722;12.012;2023-03-31T05:13:40;2.47;;;1.90;;
19599;SDS011;9947;57.722;12.012;2023-03-31T05:16:07;1.73;;;1.70;;
19599;SDS011;9947;57.722;12.012;2023-03-31T05:18:38;2.27;;;1.90;;
19599;SDS011;9947;57.722;12.012;2023-03-31T05:21:09;2.27;;;2.13;;
19599;SDS011;9947;57.722;12.012;2023-03-31T05:23:37;3.43;;;2.13;;
19599;SDS011;9947;57.722;12.012;2023-03-31T05:26:04;2.70;;;1.97;;
19599;SDS011;9947;57.722;12.012;2023-03-31T05:28:34;2.10;;;1.90;;
19599;SDS011;9947;57.722;12.012;2023-03-31T05:31:02;1.90;;;1.80;;
19599;SDS011;9947;57.722;12.012;2023-03-31T05:33:30;2.00;;;1.90;;
19599;SDS011;9947;57.722;12.012;2023-03-31T05:35:58;1.90;;;1.80;;
19599;SDS011;9947;57.722;12.012;2023-03-31T05:38:31;2.27;;;1.90;;
19599;SDS011;9947;57.722;12.012;2023-03-31T05:40:59;4.93;;;2.07;;
19599;SDS011;9947;57.722;12.012;2023-03-31T05:43:25;1.80;;;1.70;;
19599;SDS011;9947;57.722;12.012;2023-03-31T05:45:54;2.73;;;1.97;;
19599;SDS011;9947;57.722;12.012;2023-03-31T05:48:21;1.70;;;1.70;;
19599;SDS011;9947;57.722;12.012;2023-03-31T05:50:48;3.17;;;1.93;;
19599;SDS011;9947;57.722;12.012;2023-03-31T05:53:14;2.17;;;2.07;;
19599;SDS011;9947;57.722;12.012;2023-03-31T05:55:42;2.10;;;2.00;;
19599;SDS011;9947;57.722;12.012;2023-03-31T05:58:08;2.27;;;2.03;;
19599;SDS011;9947;57.722;12.012;2023-03-31T06:00:36;3.67;;;1.80;;
19599;SDS011;9947;57.722;12.012;2023-03-31T06:03:04;2.47;;;1.73;;
19599;SDS011;9947;57.722;12.012;2023-03-31T06:05:32;1.87;;;1.77;;
19599;SDS011;9947;57.722;12.012;2023-03-31T06:07:59;2.60;;;1.90;;
19599;SDS011;9947;57.722;12.012;2023-03-31T06:10:26;2.23;;;2.10;;
19599;SDS011;9947;57.722;12.012;2023-03-31T06:12:53;1.83;;;1.70;;
19599;SDS011;9947;57.722;12.012;2023-03-31T06:15:20;2.60;;;1.90;;
19599;SDS011;9947;57.722;12.012;2023-03-31T06:17:47;1.93;;;1.80;;
19599;SDS011;9947;57.722;12.012;2023-03-31T06:20:21;3.37;;;2.00;;
19599;SDS011;9947;57.722;12.012;2023-03-31T06:22:48;1.80;;;1.70;;
19599;SDS011;9947;57.722;12.012;2023-03-31T06:25:16;2.00;;;1.90;;
19599;SDS011;9947;57.722;12.012;2023-03-31T06:27:43;1.80;;;1.70;;
19599;SDS011;9947;57.722;12.012;2023-03-31T06:30:11;2.03;;;1.83;;
19599;SDS011;9947;57.722;12.012;2023-03-31T06:32:38;4.30;;;1.70;;
19599;SDS011;9947;57.722;12.012;2023-03-31T06:35:05;1.60;;;1.60;;
19599;SDS011;9947;57.722;12.012;2023-03-31T06:37:34;1.90;;;1.80;;
19599;SDS011;9947;57.722;12.012;2023-03-31T06:40:01;4.30;;;2.30;;
19599;SDS011;9947;57.722;12.012;2023-03-31T06:42:29;1.87;;;1.77;;
19599;SDS011;9947;57.722;12.012;2023-03-31T06:44:56;2.07;;;1.97;;
19599;SDS011;9947;57.722;12.012;2023-03-31T06:47:23;7.00;;;2.00;;
19599;SDS011;9947;57.722;12.012;2023-03-31T06:49:50;2.20;;;2.00;;
19599;SDS011;9947;57.722;12.012;2023-03-31T06:52:17;4.37;;;2.00;;
19599;SDS011;9947;57.722;12.012;2023-03-31T06:54:46;2.30;;;2.17;;
19599;SDS011;9947;57.722;12.012;2023-03-31T06:57:13;2.33;;;2.13;;
19599;SDS011;9947;57.722;12.012;2023-03-31T06:59:40;2.00;;;1.90;;
19599;SDS011;9947;57.722;12.012;2023-03-31T07:02:08;1.80;;;1.70;;
19599;SDS011;9947;57.722;12.012;2023-03-31T07:04:36;2.00;;;1.90;;
19599;SDS011;9947;57.722;12.012;2023-03-31T07:07:03;2.00;;;1.90;;
19599;SDS011;9947;57.722;12.012;2023-03-31T07:09:36;2.13;;;1.90;;
19599;SDS011;9947;57.722;12.012;2023-03-31T07:12:05;1.97;;;1.87;;
19599;SDS011;9947;57.722;12.012;2023-03-31T07:14:32;1.97;;;1.87;;
19599;SDS011;9947;57.722;12.012;2023-03-31T07:16:58;4.37;;;2.07;;
19599;SDS011;9947;57.722;12.012;2023-03-31T07:19:25;1.80;;;1.70;;
19599;SDS011;9947;57.722;12.012;2023-03-31T07:21:52;2.00;;;1.90;;
19599;SDS011;9947;57.722;12.012;2023-03-31T07:24:20;2.00;;;1.90;;
19599;SDS011;9947;57.722;12.012;2023-03-31T07:26:48;3.57;;;2.10;;
19599;SDS011;9947;57.722;12.012;2023-03-31T07:29:16;7.00;;;2.30;;
19599;SDS011;9947;57.722;12.012;2023-03-31T07:31:45;4.87;;;2.20;;
19599;SDS011;9947;57.722;12.012;2023-03-31T07:34:12;2.20;;;2.10;;
19599;SDS011;9947;57.722;12.012;2023-03-31T07:36:39;1.83;;;1.73;;
19599;SDS011;9947;57.722;12.012;2023-03-31T07:39:06;1.90;;;1.83;;
19599;SDS011;9947;57.722;12.012;2023-03-31T07:41:33;2.47;;;2.00;;
19599;SDS011;9947;57.722;12.012;2023-03-31T07:44:01;2.00;;;1.90;;
19599;SDS011;9947;57.722;12.012;2023-03-31T07:46:31;1.93;;;1.83;;
19599;SDS011;9947;57.722;12.012;2023-03-31T07:49:04;2.00;;;1.90;;
19599;SDS011;9947;57.722;12.012;2023-03-31T07:51:32;2.90;;;1.90;;
19599;SDS011;9947;57.722;12.012;2023-03-31T07:53:59;2.00;;;1.80;;
19599;SDS011;9947;57.722;12.012;2023-03-31T07:56:25;2.10;;;2.00;;
19599;SDS011;9947;57.722;12.012;2023-03-31T07:58:52;1.80;;;1.70;;
19599;SDS011;9947;57.722;12.012;2023-03-31T08:01:20;2.03;;;1.93;;
19599;SDS011;9947;57.722;12.012;2023-03-31T08:03:51;2.00;;;1.90;;
19599;SDS011;9947;57.722;12.012;2023-03-31T08:06:20;2.00;;;1.90;;
19599;SDS011;9947;57.722;12.012;2023-03-31T08:08:49;2.57;;;1.90;;
19599;SDS011;9947;57.722;12.012;2023-03-31T08:11:16;1.97;;;1.87;;
19599;SDS011;9947;57.722;12.012;2023-03-31T08:13:45;1.60;;;1.60;;
19599;SDS011;9947;57.722;12.012;2023-03-31T08:16:12;1.80;;;1.70;;
19599;SDS011;9947;57.722;12.012;2023-03-31T08:18:40;4.83;;;2.10;;
19599;SDS011;9947;57.722;12.012;2023-03-31T08:21:09;2.20;;;2.10;;
19599;SDS011;9947;57.722;12.012;2023-03-31T08:23:36;2.40;;;1.90;;
19599;SDS011;9947;57.722;12.012;2023-03-31T08:26:07;2.77;;;1.90;;
19599;SDS011;9947;57.722;12.012;2023-03-31T08:28:36;2.07;;;1.97;;
19599;SDS011;9947;57.722;12.012;2023-03-31T08:31:03;3.83;;;2.00;;
19599;SDS011;9947;57.722;12.012;2023-03-31T08:33:30;1.80;;;1.70;;
19599;SDS011;9947;57.722;12.012;2023-03-31T08:36:00;2.97;;;2.00;;
19599;SDS011;9947;57.722;12.012;2023-03-31T08:38:33;2.00;;;1.90;;
19599;SDS011;9947;57.722;12.012;2023-03-31T08:41:02;1.93;;;1.80;;
19599;SDS011;9947;57.722;12.012;2023-03-31T08:43:32;3.03;;;1.97;;
19599;SDS011;9947;57.722;12.012;2023-03-31T08:46:03;1.80;;;1.70;;
19599;SDS011;9947;57.722;12.012;2023-03-31T08:48:31;2.90;;;2.00;;
19599;SDS011;9947;57.722;12.012;2023-03-31T08:51:11;1.90;;;1.80;;
19599;SDS011;9947;57.722;12.012;2023-03-31T08:53:47;2.17;;;2.07;;
19599;SDS011;9947;57.722;12.012;2023-03-31T08:56:18;1.80;;;1.70;;
19599;SDS011;9947;57.722;12.012;2023-03-31T08:58:48;2.17;;;2.07;;
19599;SDS011;9947;57.722;12.012;2023-03-31T09:01:19;2.20;;;2.10;;
19599;SDS011;9947;57.722;12.012;2023-03-31T09:03:59;2.33;;;2.13;;
19599;SDS011;9947;57.722;12.012;2023-03-31T09:06:49;2.00;;;1.90;;
19599;SDS011;9947;57.722;12.012;2023-03-31T09:09:28;2.50;;;2.30;;
19599;SDS011;9947;57.722;12.012;2023-03-31T09:12:04;3.00;;;2.30;;
19599;SDS011;9947;57.722;12.012;2023-03-31T09:14:37;2.40;;;2.20;;
19599;SDS011;9947;57.722;12.012;2023-03-31T09:17:11;2.40;;;2.20;;
19599;SDS011;9947;57.722;12.012;2023-03-31T09:19:46;2.30;;;2.20;;
19599;SDS011;9947;57.722;12.012;2023-03-31T09:22:17;2.80;;;2.60;;
19599;SDS011;9947;57.722;12.012;2023-03-31T09:24:51;4.27;;;2.33;;
19599;SDS011;9947;57.722;12.012;2023-03-31T09:27:22;2.63;;;2.43;;
19599;SDS011;9947;57.722;12.012;2023-03-31T09:29:52;2.60;;;2.17;;
19599;SDS011;9947;57.722;12.012;2023-03-31T09:32:23;3.37;;;2.43;;
19599;SDS011;9947;57.722;12.012;2023-03-31T09:34:55;4.30;;;2.60;;
19599;SDS011;9947;57.722;12.012;2023-03-31T09:37:26;4.33;;;2.50;;
19599;SDS011;9947;57.722;12.012;2023-03-31T09:40:05;2.50;;;2.30;;
19599;SDS011;9947;57.722;12.012;2023-03-31T09:42:35;4.07;;;2.43;;
19599;SDS011;9947;57.722;12.012;2023-03-31T09:45:04;2.67;;;2.50;;
19599;SDS011;9947;57.722;12.012;2023-03-31T09:47:32;2.70;;;2.50;;
19599;SDS011;9947;57.722;12.012;2023-03-31T09:50:04;2.90;;;2.70;;
19599;SDS011;9947;57.722;12.012;2023-03-31T09:52:33;2.77;;;2.57;;
19599;SDS011;9947;57.722;12.012;2023-03-31T09:55:03;3.20;;;2.50;;
19599;SDS011;9947;57.722;12.012;2023-03-31T09:57:39;3.20;;;2.70;;
19599;SDS011;9947;57.722;12.012;2023-03-31T10:00:12;2.80;;;2.60;;
19599;SDS011;9947;57.722;12.012;2023-03-31T10:02:42;2.70;;;2.50;;
19599;SDS011;9947;57.722;12.012;2023-03-31T10:05:27;2.50;;;2.33;;
19599;SDS011;9947;57.722;12.012;2023-03-31T10:08:11;3.27;;;2.60;;
19599;SDS011;9947;57.722;12.012;2023-03-31T10:10:47;3.67;;;2.70;;
19599;SDS011;9947;57.722;12.012;2023-03-31T10:13:18;2.60;;;2.40;;
19599;SDS011;9947;57.722;12.012;2023-03-31T10:15:46;3.20;;;2.87;;
19599;SDS011;9947;57.722;12.012;2023-03-31T10:18:18;2.83;;;2.63;;
19599;SDS011;9947;57.722;12.012;2023-03-31T10:20:47;2.30;;;2.20;;
19599;SDS011;9947;57.722;12.012;2023-03-31T10:23:16;2.80;;;2.60;;
19599;SDS011;9947;57.722;12.012;2023-03-31T10:25:50;2.43;;;2.27;;
19599;SDS011;9947;57.722;12.012;2023-03-31T10:28:18;2.40;;;2.30;;
19599;SDS011;9947;57.722;12.012;2023-03-31T10:30:46;5.87;;;2.80;;
19599;SDS011;9947;57.722;12.012;2023-03-31T10:33:16;2.43;;;2.30;;
19599;SDS011;9947;57.722;12.012;2023-03-31T10:35:49;2.30;;;2.20;;
19599;SDS011;9947;57.722;12.012;2023-03-31T10:38:28;2.60;;;2.40;;
19599;SDS011;9947;57.722;12.012;2023-03-31T10:40:58;2.40;;;2.30;;
19599;SDS011;9947;57.722;12.012;2023-03-31T10:43:27;2.50;;;2.30;;
19599;SDS011;9947;57.722;12.012;2023-03-31T10:45:56;2.30;;;2.20;;
19599;SDS011;9947;57.722;12.012;2023-03-31T10:48:24;2.90;;;2.70;;
19599;SDS011;9947;57.722;12.012;2023-03-31T10:50:53;2.60;;;2.40;;
19599;SDS011;9947;57.722;12.012;2023-03-31T10:53:23;2.57;;;2.37;;
19599;SDS011;9947;57.722;12.012;2023-03-31T10:55:57;2.50;;;2.40;;
19599;SDS011;9947;57.722;12.012;2023-03-31T10:58:40;2.90;;;2.70;;
19599;SDS011;9947;57.722;12.012;2023-03-31T11:01:20;2.40;;;2.30;;
19599;SDS011;9947;57.722;12.012;2023-03-31T11:04:00;2.80;;;2.60;;
19599;SDS011;9947;57.722;12.012;2023-03-31T11:06:51;2.63;;;2.47;;
19599;SDS011;9947;57.722;12.012;2023-03-31T11:09:34;3.10;;;2.77;;
19599;SDS011;9947;57.722;12.012;2023-03-31T11:12:22;3.83;;;2.57;;
19599;SDS011;9947;57.722;12.012;2023-03-31T11:14:56;2.57;;;2.37;;
19599;SDS011;9947;57.722;12.012;2023-03-31T11:17:45;2.67;;;2.50;;
19599;SDS011;9947;57.722;12.012;2023-03-31T11:20:24;2.60;;;2.50;;
19599;SDS011;9947;57.722;12.012;2023-03-31T11:22:59;2.70;;;2.50;;
19599;SDS011;9947;57.722;12.012;2023-03-31T11:25:37;2.90;;;2.70;;
19599;SDS011;9947;57.722;12.012;2023-03-31T11:28:25;3.03;;;2.50;;
19599;SDS011;9947;57.722;12.012;2023-03-31T11:31:04;2.50;;;2.40;;
19599;SDS011;9947;57.722;12.012;2023-03-31T11:33:46;2.67;;;2.53;;
19599;SDS011;9947;57.722;12.012;2023-03-31T11:36:26;2.23;;;2.13;;
19599;SDS011;9947;57.722;12.012;2023-03-31T11:39:13;2.73;;;2.53;;
19599;SDS011;9947;57.722;12.012;2023-03-31T11:41:48;2.60;;;2.40;;
19599;SDS011;9947;57.722;12.012;2023-03-31T11:44:19;2.73;;;2.53;;
19599;SDS011;9947;57.722;12.012;2023-03-31T11:46:49;3.20;;;2.90;;
19599;SDS011;9947;57.722;12.012;2023-03-31T11:49:21;2.70;;;2.50;;
19599;SDS011;9947;57.722;12.012;2023-03-31T11:51:51;3.57;;;2.83;;
19599;SDS011;9947;57.722;12.012;2023-03-31T11:54:24;3.17;;;2.97;;
19599;SDS011;9947;57.722;12.012;2023-03-31T11:56:56;3.00;;;2.80;;
19599;SDS011;9947;57.722;12.012;2023-03-31T11:59:27;3.17;;;2.63;;
19599;SDS011;9947;57.722;12.012;2023-03-31T12:01:59;3.77;;;2.70;;
19599;SDS011;9947;57.722;12.012;2023-03-31T12:04:37;3.63;;;3.13;;
19599;SDS011;9947;57.722;12.012;2023-03-31T12:07:19;3.13;;;2.90;;
19599;SDS011;9947;57.722;12.012;2023-03-31T12:09:57;2.97;;;2.77;;
19599;SDS011;9947;57.722;12.012;2023-03-31T12:12:31;2.80;;;2.60;;
19599;SDS011;9947;57.722;12.012;2023-03-31T12:15:05;3.30;;;2.80;;
19599;SDS011;9947;57.722;12.012;2023-03-31T12:17:38;2.73;;;2.60;;
19599;SDS011;9947;57.722;12.012;2023-03-31T12:20:12;3.97;;;2.63;;
19599;SDS011;9947;57.722;12.012;2023-03-31T12:22:46;3.20;;;2.90;;
19599;SDS011;9947;57.722;12.012;2023-03-31T12:25:15;3.73;;;3.07;;
19599;SDS011;9947;57.722;12.012;2023-03-31T12:27:47;2.40;;;2.20;;
19599;SDS011;9947;57.722;12.012;2023-03-31T12:30:18;2.80;;;2.60;;
19599;SDS011;9947;57.722;12.012;2023-03-31T12:32:52;3.07;;;2.87;;
19599;SDS011;9947;57.722;12.012;2023-03-31T12:35:23;2.70;;;2.50;;
19599;SDS011;9947;57.722;12.012;2023-03-31T12:37:59;5.30;;;3.30;;
19599;SDS011;9947;57.722;12.012;2023-03-31T12:40:42;3.00;;;2.70;;
19599;SDS011;9947;57.722;12.012;2023-03-31T12:43:23;3.20;;;2.90;;
19599;SDS011;9947;57.722;12.012;2023-03-31T12:46:02;4.57;;;3.07;;
19599;SDS011;9947;57.722;12.012;2023-03-31T12:48:49;3.43;;;3.13;;
19599;SDS011;9947;57.722;12.012;2023-03-31T12:51:34;3.10;;;2.80;;
19599;SDS011;9947;57.722;12.012;2023-03-31T12:54:18;4.97;;;3.37;;
19599;SDS011;9947;57.722;12.012;2023-03-31T12:57:03;3.40;;;3.10;;
19599;SDS011;9947;57.722;12.012;2023-03-31T12:59:38;3.40;;;3.10;;
19599;SDS011;9947;57.722;12.012;2023-03-31T13:02:18;2.90;;;2.70;;
19599;SDS011;9947;57.722;12.012;2023-03-31T13:04:49;3.90;;;2.80;;
19599;SDS011;9947;57.722;12.012;2023-03-31T13:07:36;3.17;;;2.93;;
19599;SDS011;9947;57.722;12.012;2023-03-31T13:10:24;3.90;;;3.17;;
19599;SDS011;9947;57.722;12.012;2023-03-31T13:12:59;3.43;;;3.13;;
19599;SDS011;9947;57.722;12.012;2023-03-31T13:15:29;3.40;;;3.10;;
19599;SDS011;9947;57.722;12.012;2023-03-31T13:18:03;3.23;;;3.03;;
19599;SDS011;9947;57.722;12.012;2023-03-31T13:20:36;2.90;;;2.70;;
19599;SDS011;9947;57.722;12.012;2023-03-31T13:23:14;3.07;;;2.80;;
19599;SDS011;9947;57.722;12.012;2023-03-31T13:25:45;3.03;;;2.83;;
19599;SDS011;9947;57.722;12.012;2023-03-31T13:28:23;3.93;;;3.53;;
19599;SDS011;9947;57.722;12.012;2023-03-31T13:30:59;4.17;;;3.30;;
19599;SDS011;9947;57.722;12.012;2023-03-31T13:33:32;3.03;;;2.77;;
19599;SDS011;9947;57.722;12.012;2023-03-31T13:39:08;3.30;;;3.00;;
19599;SDS011;9947;57.722;12.012;2023-03-31T13:41:53;3.50;;;3.20;;
19599;SDS011;9947;57.722;12.012;2023-03-31T13:44:35;3.50;;;2.90;;
19599;SDS011;9947;57.722;12.012;2023-03-31T13:47:29;3.93;;;2.90;;
19599;SDS011;9947;57.722;12.012;2023-03-31T13:50:40;3.57;;;3.27;;
19599;SDS011;9947;57.722;12.012;2023-03-31T13:53:22;3.17;;;2.97;;
19599;SDS011;9947;57.722;12.012;2023-03-31T13:59:11;3.37;;;3.10;;
19599;SDS011;9947;57.722;12.012;2023-03-31T14:02:00;3.33;;;3.07;;
19599;SDS011;9947;57.722;12.012;2023-03-31T14:07:39;3.27;;;2.97;;
19599;SDS011;9947;57.722;12.012;2023-03-31T14:10:20;3.63;;;3.33;;
19599;SDS011;9947;57.722;12.012;2023-03-31T14:12:50;3.23;;;3.03;;
19599;SDS011;9947;57.722;12.012;2023-03-31T14:15:20;3.80;;;3.43;;
19599;SDS011;9947;57.722;12.012;2023-03-31T14:17:47;3.60;;;3.30;;
19599;SDS011;9947;57.722;12.012;2023-03-31T14:20:25;3.77;;;2.90;;
19599;SDS011;9947;57.722;12.012;2023-03-31T14:23:05;3.73;;;2.90;;
19599;SDS011;9947;57.722;12.012;2023-03-31T14:25:43;3.37;;;3.07;;
19599;SDS011;9947;57.722;12.012;2023-03-31T14:28:19;3.23;;;3.03;;
19599;SDS011;9947;57.722;12.012;2023-03-31T14:31:12;3.10;;;2.90;;
19599;SDS011;9947;57.722;12.012;2023-03-31T14:34:02;3.07;;;2.87;;
19599;SDS011;9947;57.722;12.012;2023-03-31T14:36:52;3.07;;;2.87;;
19599;SDS011;9947;57.722;12.012;2023-03-31T14:39:26;3.73;;;3.43;;
19599;SDS011;9947;57.722;12.012;2023-03-31T14:41:57;3.50;;;3.20;;
19599;SDS011;9947;57.722;12.012;2023-03-31T14:44:26;4.03;;;3.40;;
19599;SDS011;9947;57.722;12.012;2023-03-31T14:46:55;3.03;;;2.83;;
19599;SDS011;9947;57.722;12.012;2023-03-31T14:49:24;3.13;;;2.83;;
19599;SDS011;9947;57.722;12.012;2023-03-31T14:51:53;3.27;;;3.07;;
19599;SDS011;9947;57.722;12.012;2023-03-31T14:54:25;3.70;;;3.40;;
19599;SDS011;9947;57.722;12.012;2023-03-31T14:56:53;3.70;;;3.40;;
19599;SDS011;9947;57.722;12.012;2023-03-31T14:59:29;3.57;;;3.27;;
19599;SDS011;9947;57.722;12.012;2023-03-31T15:01:58;3.13;;;2.93;;
19599;SDS011;9947;57.722;12.012;2023-03-31T15:04:35;3.37;;;3.00;;
19599;SDS011;9947;57.722;12.012;2023-03-31T15:07:10;3.87;;;3.57;;
19599;SDS011;9947;57.722;12.012;2023-03-31T15:09:39;3.33;;;3.03;;
19599;SDS011;9947;57.722;12.012;2023-03-31T15:12:13;4.00;;;3.60;;
19599;SDS011;9947;57.722;12.012;2023-03-31T15:14:43;3.37;;;3.17;;
19599;SDS011;9947;57.722;12.012;2023-03-31T15:17:19;3.30;;;3.10;;
19599;SDS011;9947;57.722;12.012;2023-03-31T15:19:51;5.80;;;3.60;;
19599;SDS011;9947;57.722;12.012;2023-03-31T15:22:21;3.47;;;3.17;;
19599;SDS011;9947;57.722;12.012;2023-03-31T15:24:51;3.73;;;3.43;;
19599;SDS011;9947;57.722;12.012;2023-03-31T15:27:20;3.23;;;3.00;;
19599;SDS011;9947;57.722;12.012;2023-03-31T15:30:03;3.47;;;3.17;;
19599;SDS011;9947;57.722;12.012;2023-03-31T15:32:33;3.80;;;3.43;;
19599;SDS011;9947;57.722;12.012;2023-03-31T15:35:10;5.17;;;3.90;;
19599;SDS011;9947;57.722;12.012;2023-03-31T15:37:46;3.63;;;3.30;;
19599;SDS011;9947;57.722;12.012;2023-03-31T15:40:17;3.63;;;3.33;;